AirNav   TITAN Aviation Fuels
 
 454 users online  

4XS1 Coyote Field Airport
Corsicana, Texas, USA

GOING TO CORSICANA?


FAA INFORMATION EFFECTIVE 09 SEPTEMBER 2021

Location

FAA Identifier: 4XS1
Lat/Long: 32-08-02.0000N 096-31-14.3000W
32-08.033333N 096-31.238333W
32.1338889,-96.5206389
(estimated)
Elevation: 430 ft. / 131 m (estimated)
Variation: 06E (1995)
From city: 3 miles NW of CORSICANA, TX
Time zone: UTC -5 (UTC -6 during Standard Time)
Zip code: 75110

Airport Operations

Airport use: CLOSED INDEFINITELY
Activation date: 02/1998
Control tower: no
ARTCC: FORT WORTH CENTER
FSS: FORT WORTH FLIGHT SERVICE STATION
Attendance: UNATNDD
Wind indicator: yes
Segmented circle: no

Airport Communications

WX ASOS at CRS (9 nm SE): 120.675 (903-872-9321)

Nearby radio navigation aids

VOR radial/distance  VOR name  Freq  Var
CQYr253/15.7CEDAR CREEK VORTAC114.8006E

 
NDB name  Hdg/Dist  Freq  Var  ID
POWELL305/6.434406ECGQ -.-. --. --.-
CORSICANA309/9.039606ECRS -.-. .-. ...
PYRAMID309/23.141806EPYF .--. -.-- ..-.
CROSSROADS270/28.921508ECSZ -.-. ... --..
MEXIA355/29.732904ELXY .-.. -..- -.--

Airport Services

Runway Information

Runway 15/33

Dimensions: 2500 x 100 ft. / 762 x 30 m
Surface: turf
RUNWAY 15  RUNWAY 33
Traffic pattern: leftleft

Airport Ownership and Management from official FAA records

Ownership: Privately-owned
Owner: ALAN WILSON
509 EDGEWOOD
CORSICANA, TX 75110
Phone 903-874-2836
Manager: SCOTT D STEVENS
1330 WEST SECOND AVE
CORSICANA, TX 75110
Phone 903-872-6899

Airport Operational Statistics

Aircraft based on the field: 2
Single engine airplanes: 2
    

Additional Remarks

FOR CD CTC FORT WORTH ARTCC AT 817-858-7584.
(ARPT STATUS) ARPT CLSD INDEFLY.

Instrument Procedures

There are no published instrument procedures at 4XS1.

Some nearby airports with instrument procedures:

KCRS - C David Campbell Field-Corsicana Municipal Airport (9 nm SE)
F41 - Ennis Municipal Airport (14 nm NW)
KJWY - Mid-Way Regional Airport (28 nm NW)
KLNC - Lancaster Regional Airport (28 nm N)
KINJ - Hillsboro Municipal Airport (29 nm W)
 
Loc | Ops | Rwys | IFR | FBO | Links
Com | Nav | Svcs | Stats | Notes

City of Fort Worth
 
Area around 4XS1 (Coyote Field Airport)
 
Road maps at: MapQuest Bing Google
 
Aerial photo
WARNING: Photo may not be current or correct
Aerial photo of 4XS1 (Coyote Field Airport)
Taken in April 2007
looking North

Do you have a better or more recent aerial photo of Coyote Field Airport that you would like to share? If so, please send us your photo.

 
Sectional chart

 
Airport distance calculator
Flying to Coyote Field Airport? Find the distance to fly.

From to 4XS1

Sunrise and sunset
Times for 16-Sep-2021
 Local
(UTC-5)
 Zulu
(UTC)
Morning civil twilight06:4711:47
Sunrise07:1212:12
Sunset19:3000:30
Evening civil twilight19:5500:55

Current date and time
Zulu (UTC)  16-Sep-2021 10:07:01
Local (UTC-5)  16-Sep-2021 05:07:01
 
METAR
KCRS 
9nm SE 
160953Z AUTO 05004KT 10SM CLR 22/19 A2990 RMK AO2 SLP119 T02220194
TAF
KGKY 
43nm NW 
160540Z 1606/1706 09006KT P6SM FEW070 FM161400 10006KT P6SM FEW025 FM161700 08009KT P6SM SCT050 FM170300 12006KT P6SM FEW100
KDAL 
46nm N 
160540Z 1606/1706 09006KT P6SM FEW070 FM161400 10006KT P6SM FEW025 FM161700 08009KT P6SM SCT050 FM170300 12006KT P6SM FEW100
KACT 
48nm SW 
160540Z 1606/1706 04004KT P6SM SKC FM161100 04006KT P6SM SCT028 FM161700 05008KT P6SM SCT040 FM170400 12006KT P6SM FEW100
NOTAMs
Click for the latest NOTAMs
NOTAMs are issued by the DoD/FAA and will open in a separate window not controlled by AirNav.

 

 
 

Would you like to see your business listed on this page?

 If your business provides an interesting product or service to pilots, flight crews, aircraft, or users of the Coyote Field Airport, you should consider listing it here.  To start the listing process, click on the button below
 
Add a business
 

Other Pages about Coyote Field Airport

Update a link
 
Copyright © AirNav, LLC. All rights reserved. Privacy Policy  Contact